sensor_id;sensor_type;location;lat;lon;timestamp;pressure;altitude;pressure_sealevel;temperature;humidity
82887;BME280;72660;51.258;-2.200;2024-01-30T17:43:48;102467.02;;;11.36;38.74
82887;BME280;72660;51.258;-2.200;2024-01-30T17:46:13;102471.32;;;11.02;39.08
82887;BME280;72660;51.258;-2.200;2024-01-30T17:48:39;102475.96;;;11.73;38.08
82887;BME280;72660;51.258;-2.200;2024-01-30T17:51:04;102477.96;;;11.80;38.36
82887;BME280;72660;51.258;-2.200;2024-01-30T17:53:29;102481.66;;;12.01;38.13
82887;BME280;72660;51.258;-2.200;2024-01-30T18:51:38;102584.43;;;11.31;38.65
82887;BME280;72660;51.258;-2.200;2024-01-30T18:54:04;102587.54;;;11.75;38.09
82887;BME280;72660;51.258;-2.200;2024-01-30T18:56:29;102590.54;;;11.94;38.59
82887;BME280;72660;51.258;-2.200;2024-01-30T19:01:20;102601.93;;;11.46;38.44
82887;BME280;72660;51.258;-2.200;2024-01-30T19:03:45;102603.69;;;11.55;38.27
82887;BME280;72660;51.258;-2.200;2024-01-30T19:06:21;102611.76;;;11.31;38.53
82887;BME280;72660;51.258;-2.200;2024-01-30T19:08:45;102613.78;;;11.63;38.34
82887;BME280;72660;51.258;-2.200;2024-01-30T19:11:06;102617.95;;;11.58;38.47
82887;BME280;72660;51.258;-2.200;2024-01-30T19:13:27;102622.05;;;11.48;39.37
82887;BME280;72660;51.258;-2.200;2024-01-30T19:15:52;102627.77;;;11.38;39.86
82887;BME280;72660;51.258;-2.200;2024-01-30T19:18:17;102624.01;;;11.24;39.22
82887;BME280;72660;51.258;-2.200;2024-01-30T19:20:43;102622.11;;;11.24;39.48
82887;BME280;72660;51.258;-2.200;2024-01-30T19:23:13;102616.96;;;11.81;38.57
82887;BME280;72660;51.258;-2.200;2024-01-30T19:25:39;102622.35;;;12.07;38.19
82887;BME280;72660;51.258;-2.200;2024-01-30T19:27:59;102629.58;;;11.49;38.21
82887;BME280;72660;51.258;-2.200;2024-01-30T19:30:25;102630.39;;;11.36;38.69
82887;BME280;72660;51.258;-2.200;2024-01-30T19:32:50;102634.18;;;11.65;38.17
82887;BME280;72660;51.258;-2.200;2024-01-30T19:35:16;102637.69;;;11.04;38.61
82887;BME280;72660;51.258;-2.200;2024-01-30T19:37:42;102638.43;;;11.38;38.28
82887;BME280;72660;51.258;-2.200;2024-01-30T19:40:07;102639.31;;;11.30;38.11
82887;BME280;72660;51.258;-2.200;2024-01-30T19:42:44;102634.46;;;11.13;38.52
82887;BME280;72660;51.258;-2.200;2024-01-30T19:44:57;102633.91;;;10.90;38.78
82887;BME280;72660;51.258;-2.200;2024-01-30T19:47:27;102634.76;;;11.19;38.68
82887;BME280;72660;51.258;-2.200;2024-01-30T19:49:47;102646.22;;;10.83;38.90
82887;BME280;72660;51.258;-2.200;2024-01-30T19:52:13;102648.22;;;11.30;38.25
82887;BME280;72660;51.258;-2.200;2024-01-30T19:54:38;102656.03;;;11.43;39.34
82887;BME280;72660;51.258;-2.200;2024-01-30T19:57:04;102669.04;;;11.04;39.69
82887;BME280;72660;51.258;-2.200;2024-01-30T19:59:29;102667.90;;;10.55;40.28
82887;BME280;72660;51.258;-2.200;2024-01-30T20:01:54;102663.66;;;10.74;40.31
82887;BME280;72660;51.258;-2.200;2024-01-30T20:04:19;102660.58;;;11.02;40.03
82887;BME280;72660;51.258;-2.200;2024-01-30T20:06:45;102664.52;;;11.28;40.21
82887;BME280;72660;51.258;-2.200;2024-01-30T20:09:10;102670.36;;;11.33;39.99
82887;BME280;72660;51.258;-2.200;2024-01-30T20:11:36;102666.91;;;11.19;40.29
82887;BME280;72660;51.258;-2.200;2024-01-30T20:14:01;102660.79;;;11.92;39.79
82887;BME280;72660;51.258;-2.200;2024-01-30T20:16:35;102658.77;;;11.71;39.44
82887;BME280;72660;51.258;-2.200;2024-01-30T20:18:52;102664.97;;;11.54;39.73
82887;BME280;72660;51.258;-2.200;2024-01-30T20:21:18;102667.53;;;11.38;39.91
82887;BME280;72660;51.258;-2.200;2024-01-30T20:23:43;102671.97;;;11.37;40.56
82887;BME280;72660;51.258;-2.200;2024-01-30T20:26:08;102674.96;;;11.04;41.10
82887;BME280;72660;51.258;-2.200;2024-01-30T20:28:33;102670.78;;;11.25;40.77
82887;BME280;72660;51.258;-2.200;2024-01-30T20:30:58;102665.38;;;11.33;40.76
82887;BME280;72660;51.258;-2.200;2024-01-30T20:33:24;102660.45;;;11.28;40.59
82887;BME280;72660;51.258;-2.200;2024-01-30T20:35:50;102658.30;;;11.50;40.24
82887;BME280;72660;51.258;-2.200;2024-01-30T20:38:14;102660.10;;;11.60;40.11
82887;BME280;72660;51.258;-2.200;2024-01-30T20:40:45;102657.45;;;11.77;39.99
82887;BME280;72660;51.258;-2.200;2024-01-30T20:43:05;102656.86;;;11.09;40.03
82887;BME280;72660;51.258;-2.200;2024-01-30T20:45:31;102657.22;;;10.83;40.18
82887;BME280;72660;51.258;-2.200;2024-01-30T20:47:56;102649.26;;;10.78;40.24
82887;BME280;72660;51.258;-2.200;2024-01-30T20:50:22;102638.16;;;10.44;41.03
82887;BME280;72660;51.258;-2.200;2024-01-30T20:52:47;102643.84;;;11.03;40.98
82887;BME280;72660;51.258;-2.200;2024-01-30T20:55:12;102645.69;;;10.85;40.63
82887;BME280;72660;51.258;-2.200;2024-01-30T20:57:38;102645.86;;;10.62;40.66
82887;BME280;72660;51.258;-2.200;2024-01-30T21:00:04;102648.93;;;10.80;40.14
82887;BME280;72660;51.258;-2.200;2024-01-30T21:02:28;102656.86;;;10.67;40.96
82887;BME280;72660;51.258;-2.200;2024-01-30T21:04:53;102659.53;;;10.90;40.51
82887;BME280;72660;51.258;-2.200;2024-01-30T21:07:19;102651.48;;;11.12;39.95
82887;BME280;72660;51.258;-2.200;2024-01-30T21:09:44;102652.74;;;11.16;39.66
82887;BME280;72660;51.258;-2.200;2024-01-30T21:12:11;102645.82;;;11.18;39.74
82887;BME280;72660;51.258;-2.200;2024-01-30T21:14:35;102643.64;;;11.22;39.39
82887;BME280;72660;51.258;-2.200;2024-01-30T21:17:00;102646.54;;;11.15;38.63
82887;BME280;72660;51.258;-2.200;2024-01-30T21:19:26;102648.78;;;11.25;38.58
82887;BME280;72660;51.258;-2.200;2024-01-30T21:21:51;102652.00;;;10.86;38.59
82887;BME280;72660;51.258;-2.200;2024-01-30T21:24:16;102650.85;;;10.83;40.40
82887;BME280;72660;51.258;-2.200;2024-01-30T21:26:41;102644.28;;;11.07;40.48
82887;BME280;72660;51.258;-2.200;2024-01-30T21:29:06;102648.53;;;10.79;41.28
82887;BME280;72660;51.258;-2.200;2024-01-30T21:31:32;102650.20;;;10.89;41.43
82887;BME280;72660;51.258;-2.200;2024-01-30T21:33:57;102649.39;;;11.28;41.00
82887;BME280;72660;51.258;-2.200;2024-01-30T21:36:23;102654.42;;;10.84;41.51
82887;BME280;72660;51.258;-2.200;2024-01-30T21:38:48;102648.14;;;11.37;40.72
82887;BME280;72660;51.258;-2.200;2024-01-30T21:41:14;102651.01;;;11.29;40.18
82887;BME280;72660;51.258;-2.200;2024-01-30T21:43:40;102656.40;;;10.93;40.25
82887;BME280;72660;51.258;-2.200;2024-01-30T21:46:05;102655.03;;;10.86;39.59
82887;BME280;72660;51.258;-2.200;2024-01-30T21:48:30;102648.65;;;11.09;39.22
82887;BME280;72660;51.258;-2.200;2024-01-30T21:50:56;102642.29;;;11.12;39.55
82887;BME280;72660;51.258;-2.200;2024-01-30T21:53:21;102638.59;;;11.31;39.34
82887;BME280;72660;51.258;-2.200;2024-01-30T21:55:47;102638.51;;;11.10;39.23
82887;BME280;72660;51.258;-2.200;2024-01-30T21:58:12;102646.12;;;11.35;39.28
82887;BME280;72660;51.258;-2.200;2024-01-30T22:00:37;102651.59;;;11.00;39.54
82887;BME280;72660;51.258;-2.200;2024-01-30T22:03:03;102658.23;;;10.72;40.15
82887;BME280;72660;51.258;-2.200;2024-01-30T22:05:28;102659.50;;;10.92;39.66
82887;BME280;72660;51.258;-2.200;2024-01-30T22:07:53;102672.53;;;10.52;39.28
82887;BME280;72660;51.258;-2.200;2024-01-30T22:10:19;102675.49;;;10.88;38.66
82887;BME280;72660;51.258;-2.200;2024-01-30T22:12:44;102677.62;;;11.06;38.76
82887;BME280;72660;51.258;-2.200;2024-01-30T22:15:10;102681.71;;;10.72;38.83
82887;BME280;72660;51.258;-2.200;2024-01-30T22:17:35;102673.35;;;10.82;39.26
82887;BME280;72660;51.258;-2.200;2024-01-30T22:20:00;102667.54;;;10.41;39.75
82887;BME280;72660;51.258;-2.200;2024-01-30T22:22:25;102660.20;;;10.75;39.80
82887;BME280;72660;51.258;-2.200;2024-01-30T22:24:51;102650.20;;;10.89;39.95
82887;BME280;72660;51.258;-2.200;2024-01-30T22:27:16;102638.44;;;10.35;40.16
82887;BME280;72660;51.258;-2.200;2024-01-30T22:29:41;102632.97;;;10.60;40.02
82887;BME280;72660;51.258;-2.200;2024-01-30T22:32:07;102626.43;;;10.49;38.48
82887;BME280;72660;51.258;-2.200;2024-01-30T22:34:38;102628.37;;;10.37;36.95
82887;BME280;72660;51.258;-2.200;2024-01-30T22:36:57;102629.49;;;10.67;36.98
82887;BME280;72660;51.258;-2.200;2024-01-30T22:39:23;102636.58;;;10.52;37.78
82887;BME280;72660;51.258;-2.200;2024-01-30T22:41:48;102648.15;;;10.65;37.43
82887;BME280;72660;51.258;-2.200;2024-01-30T22:44:14;102654.69;;;10.69;38.12
82887;BME280;72660;51.258;-2.200;2024-01-30T22:46:39;102645.27;;;10.36;38.81
82887;BME280;72660;51.258;-2.200;2024-01-30T22:49:04;102647.06;;;10.45;38.91
82887;BME280;72660;51.258;-2.200;2024-01-30T22:51:29;102659.48;;;10.71;38.97
82887;BME280;72660;51.258;-2.200;2024-01-30T22:53:54;102667.22;;;10.46;39.42
82887;BME280;72660;51.258;-2.200;2024-01-30T22:56:20;102662.56;;;10.29;39.54
82887;BME280;72660;51.258;-2.200;2024-01-30T22:58:45;102654.79;;;10.19;39.64
82887;BME280;72660;51.258;-2.200;2024-01-30T23:01:10;102658.37;;;10.24;39.97
82887;BME280;72660;51.258;-2.200;2024-01-30T23:03:35;102663.80;;;10.49;39.63
82887;BME280;72660;51.258;-2.200;2024-01-30T23:06:01;102664.34;;;10.25;39.72
82887;BME280;72660;51.258;-2.200;2024-01-30T23:08:26;102667.56;;;10.56;39.42
82887;BME280;72660;51.258;-2.200;2024-01-30T23:10:52;102673.77;;;10.27;39.57
82887;BME280;72660;51.258;-2.200;2024-01-30T23:13:17;102676.07;;;10.55;39.31
82887;BME280;72660;51.258;-2.200;2024-01-30T23:15:42;102678.71;;;10.17;39.68
82887;BME280;72660;51.258;-2.200;2024-01-30T23:18:08;102679.96;;;10.31;37.81
82887;BME280;72660;51.258;-2.200;2024-01-30T23:20:39;102680.09;;;10.16;38.48
82887;BME280;72660;51.258;-2.200;2024-01-30T23:22:59;102687.39;;;10.19;38.60
82887;BME280;72660;51.258;-2.200;2024-01-30T23:25:24;102696.87;;;10.16;38.82
82887;BME280;72660;51.258;-2.200;2024-01-30T23:27:49;102697.54;;;10.06;38.79
82887;BME280;72660;51.258;-2.200;2024-01-30T23:30:15;102700.27;;;10.35;38.24
82887;BME280;72660;51.258;-2.200;2024-01-30T23:32:40;102704.76;;;10.48;38.26
82887;BME280;72660;51.258;-2.200;2024-01-30T23:35:06;102708.95;;;10.32;38.58
82887;BME280;72660;51.258;-2.200;2024-01-30T23:37:31;102710.05;;;10.69;38.69
82887;BME280;72660;51.258;-2.200;2024-01-30T23:39:56;102706.09;;;10.62;39.00
82887;BME280;72660;51.258;-2.200;2024-01-30T23:42:23;102715.60;;;10.40;39.27
82887;BME280;72660;51.258;-2.200;2024-01-30T23:44:47;102725.17;;;10.26;40.24
82887;BME280;72660;51.258;-2.200;2024-01-30T23:47:12;102722.35;;;10.36;39.94
82887;BME280;72660;51.258;-2.200;2024-01-30T23:49:38;102729.23;;;10.10;40.62
82887;BME280;72660;51.258;-2.200;2024-01-30T23:52:03;102732.10;;;10.21;40.87
82887;BME280;72660;51.258;-2.200;2024-01-30T23:54:28;102727.38;;;10.01;41.04
82887;BME280;72660;51.258;-2.200;2024-01-30T23:56:54;102723.89;;;9.84;41.43
82887;BME280;72660;51.258;-2.200;2024-01-30T23:59:19;102719.97;;;9.82;41.43
